createdAt,value
2018-12-29T00:01:28.386Z,46.80
2018-12-29T00:03:59.122Z,46.83
2018-12-29T00:06:29.872Z,42.87
2018-12-29T00:09:00.653Z,47.50
2018-12-29T00:11:31.429Z,48.20
2018-12-29T00:14:02.263Z,53.40
2018-12-29T00:16:33.139Z,50.27
2018-12-29T00:19:03.973Z,47.97
2018-12-29T00:21:34.753Z,45.37
2018-12-29T00:24:05.526Z,46.07
2018-12-29T00:26:36.363Z,44.03
2018-12-29T00:29:07.165Z,47.90
2018-12-29T00:31:37.934Z,46.90
2018-12-29T00:34:08.760Z,46.80
2018-12-29T00:36:39.566Z,47.70
2018-12-29T00:39:10.317Z,49.03
2018-12-29T00:41:41.079Z,50.47
2018-12-29T00:44:11.911Z,55.73
2018-12-29T00:46:42.650Z,53.53
2018-12-29T00:49:13.372Z,54.13
2018-12-29T00:51:44.151Z,52.10
2018-12-29T00:54:15.298Z,53.00
2018-12-29T00:56:46.116Z,49.17
2018-12-29T00:59:17.040Z,52.03
2018-12-29T01:01:47.969Z,50.23
2018-12-29T01:04:18.760Z,49.93
2018-12-29T01:06:49.523Z,49.20
2018-12-29T01:09:20.245Z,52.73
2018-12-29T01:11:50.988Z,49.57
2018-12-29T01:14:21.714Z,50.47
2018-12-29T01:16:52.617Z,51.67
2018-12-29T01:19:23.365Z,47.37
2018-12-29T01:21:54.144Z,52.93
2018-12-29T01:24:24.871Z,51.43
2018-12-29T01:26:55.705Z,49.23
2018-12-29T01:29:26.502Z,49.17
2018-12-29T01:31:57.251Z,49.67
2018-12-29T01:34:28.088Z,49.87
2018-12-29T01:36:58.873Z,45.27
2018-12-29T01:39:29.629Z,49.97
2018-12-29T01:42:00.381Z,48.27
2018-12-29T01:44:31.266Z,49.97
2018-12-29T01:47:03.396Z,44.63
2018-12-29T01:49:34.133Z,51.37
2018-12-29T01:52:05.011Z,48.17
2018-12-29T01:54:35.728Z,51.03
2018-12-29T01:57:06.582Z,49.50
2018-12-29T01:59:37.358Z,50.57
2018-12-29T02:02:08.099Z,50.80
2018-12-29T02:04:38.820Z,51.47
2018-12-29T02:07:09.595Z,49.80
2018-12-29T02:09:40.406Z,51.80
2018-12-29T02:12:11.139Z,54.23
2018-12-29T02:14:41.887Z,50.37
2018-12-29T02:17:15.604Z,56.83
2018-12-29T02:19:46.395Z,53.90
2018-12-29T02:22:17.176Z,54.43
2018-12-29T02:24:47.918Z,48.00
2018-12-29T02:27:18.662Z,53.47
2018-12-29T02:29:49.527Z,52.03
2018-12-29T02:32:20.298Z,46.83
2018-12-29T02:34:51.016Z,56.73
2018-12-29T02:37:21.785Z,52.33
2018-12-29T02:39:52.550Z,51.20
2018-12-29T02:42:23.309Z,47.27
2018-12-29T02:44:54.061Z,50.83
2018-12-29T02:47:24.813Z,51.17
2018-12-29T02:49:55.555Z,50.80
2018-12-29T02:52:26.349Z,49.17
2018-12-29T02:54:57.059Z,50.43
2018-12-29T02:57:27.916Z,46.30
2018-12-29T02:59:58.621Z,48.17
2018-12-29T03:02:32.407Z,53.00
2018-12-29T03:05:03.146Z,48.63
2018-12-29T03:07:33.904Z,48.23
2018-12-29T03:10:04.827Z,50.63
2018-12-29T03:12:35.558Z,48.10
2018-12-29T03:15:06.457Z,50.60
2018-12-29T03:17:37.226Z,51.27
2018-12-29T03:20:07.967Z,51.33
2018-12-29T03:22:38.720Z,47.00
2018-12-29T03:25:09.455Z,49.27
2018-12-29T03:27:40.346Z,54.07
2018-12-29T03:30:11.082Z,47.40
2018-12-29T03:32:41.821Z,48.93
2018-12-29T03:35:12.562Z,51.27
2018-12-29T03:37:43.336Z,50.37
2018-12-29T03:40:14.205Z,49.90
2018-12-29T03:42:45.047Z,53.40
2018-12-29T03:45:15.881Z,50.77
2018-12-29T03:47:46.635Z,49.90
2018-12-29T03:50:17.392Z,50.33
2018-12-29T03:52:48.426Z,53.83
2018-12-29T03:55:19.133Z,49.87
2018-12-29T03:57:49.892Z,48.87
2018-12-29T04:00:20.613Z,52.10
2018-12-29T04:02:51.399Z,54.10
2018-12-29T04:05:22.182Z,55.10
2018-12-29T04:07:52.935Z,56.23
2018-12-29T04:10:23.630Z,50.27
2018-12-29T04:12:58.807Z,55.90
2018-12-29T04:15:29.670Z,52.37
2018-12-29T04:18:00.454Z,51.23
2018-12-29T04:20:31.192Z,50.50
2018-12-29T04:23:01.937Z,51.00
2018-12-29T04:25:32.669Z,58.47
2018-12-29T04:28:03.563Z,54.50
2018-12-29T04:30:34.330Z,57.07
2018-12-29T04:33:05.112Z,53.20
2018-12-29T04:35:35.845Z,47.63
2018-12-29T04:38:06.680Z,55.37
2018-12-29T04:40:37.415Z,51.87
2018-12-29T04:43:10.943Z,53.07
2018-12-29T04:45:41.792Z,54.50
2018-12-29T04:48:12.650Z,49.90
2018-12-29T04:50:43.378Z,49.67
2018-12-29T04:53:14.160Z,53.17
2018-12-29T04:55:44.892Z,53.50
2018-12-29T04:58:15.746Z,52.83
2018-12-29T05:00:46.471Z,53.13
2018-12-29T05:03:17.248Z,56.23
2018-12-29T05:05:47.969Z,54.97
2018-12-29T05:08:18.825Z,47.23
2018-12-29T05:10:49.949Z,53.00
2018-12-29T05:13:20.808Z,54.33
2018-12-29T05:15:51.575Z,48.57
2018-12-29T05:18:22.305Z,51.67
2018-12-29T05:20:53.098Z,50.83
2018-12-29T05:23:23.864Z,50.03
2018-12-29T05:25:54.615Z,49.27
2018-12-29T05:28:25.378Z,52.83
2018-12-29T05:30:56.123Z,46.90
2018-12-29T05:33:26.961Z,52.80
2018-12-29T05:35:57.715Z,46.07
2018-12-29T05:38:28.419Z,50.27
2018-12-29T05:40:59.175Z,49.53
2018-12-29T05:43:30.000Z,47.40
2018-12-29T05:46:00.736Z,58.73
2018-12-29T05:48:31.441Z,50.70
2018-12-29T05:51:02.195Z,52.73
2018-12-29T05:53:33.022Z,49.63
2018-12-29T05:56:03.768Z,51.50
2018-12-29T05:58:34.494Z,50.73
2018-12-29T06:01:05.303Z,55.53
2018-12-29T06:03:36.128Z,53.07
2018-12-29T06:06:06.941Z,59.13
2018-12-29T06:08:37.665Z,58.77
2018-12-29T06:11:08.367Z,56.57
2018-12-29T06:13:39.439Z,59.10
2018-12-29T06:16:10.304Z,56.33
2018-12-29T06:18:41.027Z,61.60
2018-12-29T06:21:11.832Z,60.67
2018-12-29T06:23:42.582Z,55.10
2018-12-29T06:26:13.343Z,58.20
2018-12-29T06:28:44.251Z,61.23
2018-12-29T06:31:14.990Z,56.87
2018-12-29T06:33:45.831Z,57.80
2018-12-29T06:36:16.613Z,57.37
2018-12-29T06:38:47.415Z,57.87
2018-12-29T06:41:18.111Z,59.13
2018-12-29T06:43:48.857Z,59.33
2018-12-29T06:46:19.566Z,54.37
2018-12-29T06:48:50.385Z,57.50
2018-12-29T06:51:21.137Z,56.40
2018-12-29T06:53:51.901Z,55.17
2018-12-29T06:56:22.625Z,57.93
2018-12-29T06:58:53.553Z,58.80
2018-12-29T07:01:24.278Z,59.33
2018-12-29T07:03:55.035Z,58.40
2018-12-29T07:06:25.776Z,56.97
2018-12-29T07:08:56.569Z,58.97
2018-12-29T07:11:27.316Z,59.53
2018-12-29T07:13:58.081Z,57.30
2018-12-29T07:16:28.902Z,59.70
2018-12-29T07:18:59.768Z,61.57
2018-12-29T07:21:30.466Z,55.83
2018-12-29T07:24:01.570Z,52.17
2018-12-29T07:26:32.313Z,58.17
2018-12-29T07:29:04.160Z,56.50
2018-12-29T07:31:34.921Z,53.87
2018-12-29T07:34:05.774Z,55.57
2018-12-29T07:36:36.492Z,54.77
2018-12-29T07:39:08.541Z,52.93
2018-12-29T07:41:39.264Z,54.63
2018-12-29T07:44:10.010Z,55.47
2018-12-29T07:46:40.773Z,58.00
2018-12-29T07:49:11.574Z,55.80
2018-12-29T07:51:42.371Z,53.67
2018-12-29T07:54:13.104Z,55.60
2018-12-29T07:56:43.814Z,52.10
2018-12-29T07:59:14.578Z,56.53
2018-12-29T08:01:45.313Z,53.77
2018-12-29T08:04:16.071Z,60.80
2018-12-29T08:06:46.801Z,60.93
2018-12-29T08:09:17.686Z,58.50
2018-12-29T08:11:48.460Z,57.50
2018-12-29T08:14:19.180Z,56.77
2018-12-29T08:16:56.677Z,57.33
2018-12-29T08:19:22.360Z,61.23
2018-12-29T08:21:53.108Z,57.03
2018-12-29T08:24:23.916Z,52.17
2018-12-29T08:26:54.610Z,63.77
2018-12-29T08:29:25.507Z,58.17
2018-12-29T08:31:56.259Z,61.13
2018-12-29T08:34:27.061Z,57.53
2018-12-29T08:36:57.791Z,61.37
2018-12-29T08:39:28.549Z,57.47
2018-12-29T08:41:59.311Z,60.97
2018-12-29T08:44:30.163Z,58.47
2018-12-29T08:47:04.475Z,62.90
2018-12-29T08:49:33.363Z,54.73
2018-12-29T08:52:04.174Z,54.33
2018-12-29T08:54:35.003Z,62.27
2018-12-29T08:57:05.742Z,57.53
2018-12-29T08:59:36.489Z,57.00
2018-12-29T09:02:07.217Z,57.53
2018-12-29T09:04:37.986Z,57.77
2018-12-29T09:07:08.796Z,55.53
2018-12-29T09:09:39.618Z,54.67
2018-12-29T09:12:10.399Z,56.27
2018-12-29T09:14:41.321Z,55.37
2018-12-29T09:17:12.522Z,54.67
2018-12-29T09:19:43.394Z,53.30
2018-12-29T09:22:14.090Z,55.90
2018-12-29T09:24:44.844Z,59.50
2018-12-29T09:27:15.553Z,51.83
2018-12-29T09:29:46.378Z,49.93
2018-12-29T09:32:17.157Z,51.87
2018-12-29T09:34:47.987Z,52.40
2018-12-29T09:37:18.868Z,50.27
2018-12-29T09:39:49.638Z,52.53
2018-12-29T09:42:20.373Z,49.93
2018-12-29T09:44:51.153Z,52.53
2018-12-29T09:47:22.033Z,50.30
2018-12-29T09:49:52.787Z,49.80
2018-12-29T09:52:23.510Z,47.80
2018-12-29T09:54:54.307Z,49.20
2018-12-29T09:57:25.093Z,43.93
2018-12-29T09:59:55.896Z,46.53
2018-12-29T10:02:26.679Z,45.47
2018-12-29T10:04:57.610Z,46.97
2018-12-29T10:07:28.347Z,46.07
2018-12-29T10:09:59.105Z,54.93
2018-12-29T10:12:29.838Z,47.77
2018-12-29T10:15:00.664Z,46.83
2018-12-29T10:17:31.386Z,42.00
2018-12-29T10:20:02.176Z,44.77
2018-12-29T10:22:32.932Z,43.73
2018-12-29T10:25:03.819Z,45.77
2018-12-29T10:27:34.531Z,50.77
2018-12-29T10:30:05.633Z,49.03
2018-12-29T10:32:36.404Z,47.80
2018-12-29T10:35:07.175Z,43.83
2018-12-29T10:37:37.915Z,45.77
2018-12-29T10:40:08.836Z,46.60
2018-12-29T10:42:39.611Z,45.53
2018-12-29T10:45:10.354Z,47.30
2018-12-29T10:47:41.094Z,54.23
2018-12-29T10:50:11.908Z,45.60
2018-12-29T10:52:42.643Z,47.70
2018-12-29T10:55:13.665Z,51.20
2018-12-29T10:57:44.424Z,52.53
2018-12-29T11:00:15.203Z,44.27
2018-12-29T11:02:46.100Z,44.13
2018-12-29T11:05:17.020Z,48.57
2018-12-29T11:07:47.727Z,44.67
2018-12-29T11:10:18.574Z,47.03
2018-12-29T11:12:49.372Z,42.60
2018-12-29T11:15:20.192Z,44.37
2018-12-29T11:17:50.915Z,48.73
2018-12-29T11:20:21.748Z,45.03
2018-12-29T11:22:52.629Z,43.63
2018-12-29T11:25:23.364Z,46.63
2018-12-29T11:27:54.174Z,41.53
2018-12-29T11:30:24.914Z,46.03
2018-12-29T11:32:55.793Z,43.00
2018-12-29T11:35:29.008Z,45.73
2018-12-29T11:37:59.011Z,41.23
2018-12-29T11:40:29.815Z,42.67
2018-12-29T11:43:00.635Z,41.13
2018-12-29T11:45:31.356Z,41.57
2018-12-29T11:48:02.126Z,41.43
2018-12-29T11:50:32.878Z,41.20
2018-12-29T11:53:03.721Z,40.40
2018-12-29T11:55:34.999Z,41.53
2018-12-29T11:58:05.806Z,39.43
2018-12-29T12:00:36.570Z,36.93
2018-12-29T12:03:07.356Z,35.43
2018-12-29T12:05:38.090Z,38.23
2018-12-29T12:08:09.272Z,38.53
2018-12-29T12:10:40.008Z,39.67
2018-12-29T12:13:10.887Z,37.10
2018-12-29T12:15:41.687Z,34.43
2018-12-29T12:18:12.500Z,39.20
2018-12-29T12:20:43.334Z,33.53
2018-12-29T12:23:14.119Z,39.07
2018-12-29T12:25:44.844Z,39.07
2018-12-29T12:28:15.809Z,31.37
2018-12-29T12:30:46.597Z,34.40
2018-12-29T12:33:17.643Z,32.10
2018-12-29T12:35:48.512Z,36.07
2018-12-29T12:38:19.592Z,34.80
2018-12-29T12:40:50.509Z,34.03
2018-12-29T12:43:21.710Z,30.53
2018-12-29T12:45:52.709Z,34.57
2018-12-29T12:48:23.503Z,33.27
2018-12-29T12:50:54.515Z,35.30
2018-12-29T12:53:25.302Z,35.20
2018-12-29T12:55:56.023Z,31.53
2018-12-29T12:58:27.027Z,32.83
2018-12-29T13:00:58.027Z,32.57
2018-12-29T13:03:29.166Z,31.33
2018-12-29T13:05:59.885Z,34.63
2018-12-29T13:08:30.671Z,31.17
2018-12-29T13:11:01.423Z,34.10
2018-12-29T13:13:32.315Z,34.27
2018-12-29T13:16:03.086Z,30.60
2018-12-29T13:18:33.877Z,30.47
2018-12-29T13:21:04.839Z,31.87
2018-12-29T13:23:35.609Z,33.50
2018-12-29T13:26:06.863Z,34.50
2018-12-29T13:28:37.634Z,32.70
2018-12-29T13:31:08.435Z,33.00
2018-12-29T13:33:40.269Z,34.10
2018-12-29T13:36:11.040Z,32.33
2018-12-29T13:38:41.829Z,33.83
2018-12-29T13:41:12.614Z,30.80
2018-12-29T13:43:43.481Z,30.27
2018-12-29T13:46:14.296Z,30.23
2018-12-29T13:48:45.140Z,30.80
2018-12-29T13:51:15.912Z,29.50
2018-12-29T13:53:46.754Z,31.37
2018-12-29T13:56:17.488Z,34.13
2018-12-29T13:58:48.283Z,31.47
2018-12-29T14:01:19.060Z,32.70
2018-12-29T14:03:49.816Z,31.77
2018-12-29T14:06:20.555Z,34.23
2018-12-29T14:08:51.620Z,31.87
2018-12-29T14:11:22.371Z,37.80
2018-12-29T14:13:53.185Z,35.07
2018-12-29T14:16:24.031Z,33.07
2018-12-29T14:18:55.072Z,36.50
2018-12-29T14:21:25.826Z,35.47
2018-12-29T14:23:56.655Z,32.53
2018-12-29T14:26:27.445Z,36.20
2018-12-29T14:28:58.376Z,32.23
2018-12-29T14:31:29.166Z,28.63
2018-12-29T14:33:59.960Z,30.40
2018-12-29T14:36:30.965Z,28.63
2018-12-29T14:39:01.737Z,31.90
2018-12-29T14:41:32.517Z,27.90
2018-12-29T14:44:03.419Z,28.07
2018-12-29T14:46:34.228Z,30.23
2018-12-29T14:49:05.054Z,34.00
2018-12-29T14:51:35.870Z,27.00
2018-12-29T14:54:07.102Z,26.87
2018-12-29T14:56:37.870Z,26.40
2018-12-29T14:59:08.602Z,24.53
2018-12-29T15:01:39.671Z,28.27
2018-12-29T15:04:10.642Z,26.97
2018-12-29T15:06:41.442Z,23.40
2018-12-29T15:09:12.206Z,25.73
2018-12-29T15:11:42.970Z,24.27
2018-12-29T15:14:13.794Z,26.40
2018-12-29T15:16:44.825Z,26.57
2018-12-29T15:19:15.590Z,29.73
2018-12-29T15:21:46.444Z,25.00
2018-12-29T15:24:17.250Z,25.90
2018-12-29T15:26:48.000Z,21.30
2018-12-29T15:29:19.055Z,27.13
2018-12-29T15:31:49.788Z,20.53
2018-12-29T15:34:20.572Z,22.90
2018-12-29T15:36:51.307Z,22.87
2018-12-29T15:39:22.382Z,30.43
2018-12-29T15:41:53.166Z,32.08
2018-12-29T15:44:24.053Z,29.43
2018-12-29T15:46:55.161Z,27.23
2018-12-29T15:49:26.006Z,24.40
2018-12-29T15:51:56.720Z,24.83
2018-12-29T15:54:27.488Z,25.63
2018-12-29T15:56:58.212Z,24.00
2018-12-29T15:59:29.323Z,22.97
2018-12-29T16:02:00.089Z,25.10
2018-12-29T16:04:30.831Z,24.67
2018-12-29T16:07:01.714Z,27.27
2018-12-29T16:09:32.904Z,29.27
2018-12-29T16:12:03.721Z,22.27
2018-12-29T16:14:35.503Z,25.60
2018-12-29T16:17:06.438Z,26.47
2018-12-29T16:19:37.297Z,23.93
2018-12-29T16:22:08.037Z,24.03
2018-12-29T16:24:38.791Z,22.30
2018-12-29T16:27:09.829Z,20.97
2018-12-29T16:29:40.581Z,29.00
2018-12-29T16:32:11.284Z,26.23
2018-12-29T16:34:42.068Z,23.07
2018-12-29T16:37:12.888Z,22.33
2018-12-29T16:39:43.923Z,21.70
2018-12-29T16:42:14.789Z,25.73
2018-12-29T16:44:45.586Z,24.63
2018-12-29T16:47:16.362Z,25.93
2018-12-29T16:49:47.267Z,24.53
2018-12-29T16:52:18.360Z,24.27
2018-12-29T16:54:49.172Z,25.07
2018-12-29T16:57:20.024Z,24.37
2018-12-29T16:59:50.820Z,24.87
2018-12-29T17:02:21.931Z,21.30
2018-12-29T17:04:52.685Z,30.73
2018-12-29T17:07:23.459Z,32.00
2018-12-29T17:09:54.321Z,27.93
2018-12-29T17:12:25.169Z,25.20
2018-12-29T17:14:55.963Z,22.60
2018-12-29T17:17:26.738Z,21.67
2018-12-29T17:19:57.681Z,20.83
2018-12-29T17:22:28.502Z,20.73
2018-12-29T17:24:59.277Z,16.37
2018-12-29T17:27:30.037Z,17.57
2018-12-29T17:30:01.267Z,16.97
2018-12-29T17:32:32.174Z,17.60
2018-12-29T17:35:02.952Z,22.93
2018-12-29T17:37:34.441Z,22.07
2018-12-29T17:40:05.620Z,19.33
2018-12-29T17:42:36.385Z,20.87
2018-12-29T17:45:07.677Z,22.60
2018-12-29T17:47:38.496Z,20.00
2018-12-29T17:50:09.359Z,22.03
2018-12-29T17:52:40.291Z,23.77
2018-12-29T17:55:11.396Z,24.50
2018-12-29T17:57:42.366Z,25.50
2018-12-29T18:00:13.163Z,26.50
2018-12-29T18:02:43.974Z,27.07
2018-12-29T18:05:14.809Z,25.10
2018-12-29T18:07:45.589Z,27.63
2018-12-29T18:10:16.421Z,27.97
2018-12-29T18:12:47.237Z,28.27
2018-12-29T18:15:18.031Z,29.43
2018-12-29T18:17:48.967Z,31.27
2018-12-29T18:20:19.907Z,30.43
2018-12-29T18:22:50.665Z,31.53
2018-12-29T18:25:21.409Z,29.43
2018-12-29T18:27:52.359Z,32.43
2018-12-29T18:30:23.215Z,35.57
2018-12-29T18:32:53.981Z,34.73
2018-12-29T18:35:24.861Z,34.63
2018-12-29T18:37:55.789Z,39.00
2018-12-29T18:40:26.697Z,39.80
2018-12-29T18:42:57.501Z,35.30
2018-12-29T18:45:28.585Z,35.00
2018-12-29T18:47:59.452Z,34.70
2018-12-29T18:50:30.187Z,38.87
2018-12-29T18:53:01.098Z,35.03
2018-12-29T18:55:32.071Z,44.70
2018-12-29T18:58:03.318Z,38.77
2018-12-29T19:00:34.104Z,38.60
2018-12-29T19:03:04.907Z,37.90
2018-12-29T19:05:35.637Z,39.07
2018-12-29T19:08:06.567Z,40.87
2018-12-29T19:10:37.357Z,43.57
2018-12-29T19:13:08.490Z,40.03
2018-12-29T19:15:39.638Z,41.83
2018-12-29T19:18:10.451Z,39.67
2018-12-29T19:20:41.224Z,42.23
2018-12-29T19:23:12.456Z,42.80
2018-12-29T19:25:43.177Z,42.20
2018-12-29T19:28:14.272Z,44.03
2018-12-29T19:30:45.087Z,39.40
2018-12-29T19:33:16.133Z,41.23
2018-12-29T19:35:47.139Z,41.27
2018-12-29T19:38:18.215Z,42.40
2018-12-29T19:40:51.030Z,47.50
2018-12-29T19:43:21.906Z,39.37
2018-12-29T19:45:52.777Z,45.47
2018-12-29T19:48:25.099Z,45.33
2018-12-29T19:50:56.204Z,44.87
2018-12-29T19:53:27.330Z,45.83
2018-12-29T19:55:58.183Z,43.73
2018-12-29T19:58:28.988Z,42.90
2018-12-29T20:00:59.851Z,51.37
2018-12-29T20:03:30.688Z,51.90
2018-12-29T20:06:01.434Z,54.73
2018-12-29T20:08:32.646Z,51.80
2018-12-29T20:11:03.558Z,49.43
2018-12-29T20:13:34.406Z,50.43
2018-12-29T20:16:05.799Z,46.47
2018-12-29T20:18:36.735Z,44.07
2018-12-29T20:21:07.476Z,56.17
2018-12-29T20:23:38.294Z,46.73
2018-12-29T20:26:09.071Z,56.53
2018-12-29T20:28:39.893Z,50.93
2018-12-29T20:31:10.967Z,48.53
2018-12-29T20:33:41.769Z,48.10
2018-12-29T20:36:12.501Z,49.00
2018-12-29T20:38:43.292Z,37.77
2018-12-29T20:41:14.020Z,33.93
2018-12-29T20:43:44.946Z,35.83
2018-12-29T20:46:15.842Z,32.00
2018-12-29T20:48:46.609Z,33.07
2018-12-29T20:51:17.528Z,36.43
2018-12-29T20:53:48.716Z,32.80
2018-12-29T20:56:19.516Z,36.00
2018-12-29T20:58:50.323Z,35.03
2018-12-29T21:01:21.106Z,26.17
2018-12-29T21:03:51.896Z,31.37
2018-12-29T21:06:22.965Z,28.67
2018-12-29T21:08:53.724Z,28.23
2018-12-29T21:11:24.544Z,23.37
2018-12-29T21:13:55.402Z,24.80
2018-12-29T21:16:26.183Z,24.13
2018-12-29T21:18:57.059Z,23.80
2018-12-29T21:21:27.831Z,22.27
2018-12-29T21:23:58.606Z,17.47
2018-12-29T21:26:29.382Z,19.90
2018-12-29T21:29:00.355Z,17.80
2018-12-29T21:31:31.112Z,19.00
2018-12-29T21:34:01.919Z,19.03
2018-12-29T21:36:32.776Z,13.87
2018-12-29T21:39:04.486Z,19.90
2018-12-29T21:41:35.654Z,17.77
2018-12-29T21:44:06.483Z,16.40
2018-12-29T21:46:37.278Z,18.43
2018-12-29T21:49:08.077Z,15.47
2018-12-29T21:51:38.878Z,14.00
2018-12-29T21:54:09.664Z,16.70
2018-12-29T21:56:40.523Z,16.43
2018-12-29T21:59:11.395Z,18.50
2018-12-29T22:01:42.173Z,15.50
2018-12-29T22:04:12.964Z,20.23
2018-12-29T22:06:43.823Z,22.57
2018-12-29T22:09:14.627Z,13.63
2018-12-29T22:11:45.360Z,23.87
2018-12-29T22:14:16.118Z,26.57
2018-12-29T22:16:47.161Z,21.30
2018-12-29T22:19:17.910Z,16.90
2018-12-29T22:21:48.690Z,18.47
2018-12-29T22:24:19.474Z,24.43
2018-12-29T22:26:50.247Z,14.97
2018-12-29T22:29:21.209Z,20.43
2018-12-29T22:31:52.038Z,16.67
2018-12-29T22:34:22.830Z,19.40
2018-12-29T22:36:53.559Z,18.70
2018-12-29T22:39:24.362Z,18.47
2018-12-29T22:41:55.170Z,15.53
2018-12-29T22:44:25.956Z,24.00
2018-12-29T22:46:56.701Z,17.83
2018-12-29T22:49:27.502Z,24.67
2018-12-29T22:51:58.563Z,22.83
2018-12-29T22:54:29.389Z,15.43
2018-12-29T22:57:00.210Z,16.00
2018-12-29T22:59:30.974Z,17.40
2018-12-29T23:02:01.733Z,15.63
2018-12-29T23:04:32.503Z,17.33
2018-12-29T23:07:03.480Z,17.60
2018-12-29T23:09:34.310Z,17.13
2018-12-29T23:12:06.453Z,23.80
2018-12-29T23:14:37.340Z,18.70
2018-12-29T23:17:08.399Z,18.17
2018-12-29T23:19:39.149Z,16.30
2018-12-29T23:22:09.921Z,17.83
2018-12-29T23:24:40.838Z,22.43
2018-12-29T23:27:11.574Z,17.80
2018-12-29T23:29:42.416Z,17.03
2018-12-29T23:32:13.217Z,24.30
2018-12-29T23:34:43.991Z,22.40
2018-12-29T23:37:14.894Z,18.37
2018-12-29T23:39:45.705Z,18.57
2018-12-29T23:42:16.547Z,16.83
2018-12-29T23:44:47.291Z,21.40
2018-12-29T23:47:18.140Z,17.20
2018-12-29T23:49:49.023Z,20.97
2018-12-29T23:52:20.110Z,17.63
2018-12-29T23:54:51.124Z,15.50
2018-12-29T23:57:22.217Z,19.87
2018-12-29T23:59:53.361Z,18.63
